Time;durP1;ratioP1;P1;durP2;ratioP2;P2;SDS_P1;SDS_P2;PMS_P1;PMS_P2;Temp;Humidity;BMP_temperature;BMP_pressure;BME280_temperature;BME280_humidity;BME280_pressure;Samples;Min_cycle;Max_cycle;Signal;HPM_P1;HPM_P2
2022/01/11 00:02:00;;;;;;;149.15;27.23;;;1.00;99.90;;;;;;5118042;28;20047;-71
2022/01/11 00:04:29;;;;;;;65.75;23.27;;;0.80;99.90;;;;;;5124861;28;20063;-71
2022/01/11 00:06:55;;;;;;;56.47;24.50;;;1.00;99.90;;;;;;5124553;28;20121;-71
2022/01/11 00:11:56;;;;;;;48.65;23.25;;;1.20;99.90;;;;;;5125223;28;20085;-71
2022/01/11 00:14:22;;;;;;;63.33;24.70;;;1.40;99.90;;;;;;5124928;28;20028;-71
2022/01/11 00:16:47;;;;;;;43.05;24.33;;;1.40;99.90;;;;;;5115330;28;20641;-71
2022/01/11 00:19:14;;;;;;;43.92;22.90;;;1.50;99.90;;;;;;5124081;28;20046;-71
2022/01/11 00:21:44;;;;;;;85.68;24.48;;;1.50;99.90;;;;;;5157481;27;20062;-71
2022/01/11 00:27:06;;;;;;;54.15;23.17;;;1.30;99.90;;;;;;5115198;28;20078;-71
2022/01/11 00:29:33;;;;;;;61.10;22.55;;;1.20;99.90;;;;;;5115451;28;20111;-71
2022/01/11 00:32:04;;;;;;;47.60;23.75;;;1.20;99.90;;;;;;5124360;28;20044;-71
2022/01/11 00:34:40;;;;;;;77.60;23.67;;;1.20;99.90;;;;;;5120040;28;20066;-71
2022/01/11 00:37:07;;;;;;;50.33;24.35;;;1.40;99.90;;;;;;5149368;27;20040;-71
2022/01/11 00:39:33;;;;;;;55.25;24.23;;;1.50;99.90;;;;;;5124076;28;20044;-71
2022/01/11 00:41:59;;;;;;;34.25;24.27;;;1.50;99.90;;;;;;5122706;28;20043;-71
2022/01/11 00:44:25;;;;;;;51.72;25.60;;;1.40;99.90;;;;;;5124448;28;20036;-71
2022/01/11 00:46:51;;;;;;;40.63;24.30;;;1.40;99.90;;;;;;5122568;28;20051;-71
2022/01/11 00:49:16;;;;;;;50.10;24.23;;;1.40;99.90;;;;;;5124154;28;20115;-71
2022/01/11 00:51:42;;;;;;;50.53;25.25;;;1.50;99.90;;;;;;5128423;28;20068;-71
2022/01/11 00:54:08;;;;;;;38.90;23.17;;;1.40;99.90;;;;;;5129260;28;20095;-71
2022/01/11 00:56:34;;;;;;;49.83;25.02;;;1.50;99.90;;;;;;5128278;28;20043;-71
2022/01/11 00:59:00;;;;;;;70.35;26.02;;;1.50;99.90;;;;;;5121313;28;20134;-71
2022/01/11 01:01:27;;;;;;;65.82;25.77;;;1.50;99.90;;;;;;5127714;28;20047;-71
2022/01/11 01:03:53;;;;;;;101.32;26.88;;;1.50;99.90;;;;;;5128076;28;20040;-71
2022/01/11 01:06:19;;;;;;;93.43;26.88;;;1.50;99.90;;;;;;5127832;28;20053;-71
2022/01/11 01:08:45;;;;;;;43.75;25.85;;;1.50;99.90;;;;;;5128387;28;20039;-71
2022/01/11 01:11:11;;;;;;;53.33;26.27;;;1.50;99.90;;;;;;5123548;28;20100;-71
2022/01/11 01:13:37;;;;;;;90.50;27.27;;;1.40;99.90;;;;;;5123069;28;20040;-71
2022/01/11 01:16:03;;;;;;;50.95;26.65;;;1.40;99.90;;;;;;5124245;28;20044;-71
2022/01/11 01:18:32;;;;;;;43.63;26.05;;;1.40;99.90;;;;;;5119528;28;20510;-71
2022/01/11 01:20:59;;;;;;;46.20;25.90;;;1.40;99.90;;;;;;5160470;27;20047;-71
2022/01/11 01:23:25;;;;;;;50.72;24.75;;;1.40;99.90;;;;;;5127163;28;20105;-71
2022/01/11 01:25:52;;;;;;;42.75;25.17;;;1.40;99.90;;;;;;5156939;27;20124;-71
2022/01/11 01:28:18;;;;;;;52.42;26.88;;;1.40;99.90;;;;;;5128264;28;20122;-72
2022/01/11 01:30:45;;;;;;;46.80;26.13;;;1.30;99.90;;;;;;5128518;28;20081;-71
2022/01/11 01:33:12;;;;;;;48.00;24.52;;;1.30;99.90;;;;;;5123754;27;20404;-71
2022/01/11 01:35:42;;;;;;;45.97;26.52;;;1.40;99.90;;;;;;5144054;27;20128;-71
2022/01/11 01:38:08;;;;;;;;;;;1.40;99.90;;;;;;5127405;27;20036;-71
2022/01/11 01:40:39;;;;;;;40.92;24.80;;;1.30;99.90;;;;;;5121284;28;19972;-71
2022/01/11 01:43:08;;;;;;;75.13;26.05;;;1.30;99.90;;;;;;5105711;28;20054;-71
2022/01/11 01:45:35;;;;;;;96.03;25.73;;;1.30;99.90;;;;;;5126834;28;20154;-71
2022/01/11 01:48:02;;;;;;;73.13;26.52;;;1.30;99.90;;;;;;5119918;28;20069;-71
2022/01/11 01:50:29;;;;;;;47.63;25.27;;;1.10;99.90;;;;;;5127022;28;20050;-71
2022/01/11 01:52:57;;;;;;;48.95;25.63;;;1.00;99.90;;;;;;5160558;27;20511;-71
2022/01/11 01:55:24;;;;;;;50.10;24.88;;;1.10;99.90;;;;;;5126786;28;20054;-71
2022/01/11 01:57:50;;;;;;;143.38;27.77;;;1.20;99.90;;;;;;5125871;28;20039;-71
2022/01/11 02:00:18;;;;;;;70.95;24.90;;;1.20;99.90;;;;;;5157114;27;20051;-71
2022/01/11 02:02:43;;;;;;;66.88;24.33;;;1.30;99.90;;;;;;5128088;27;20047;-71
2022/01/11 02:05:09;;;;;;;80.57;24.65;;;1.20;99.90;;;;;;5122923;28;20048;-71
2022/01/11 02:07:35;;;;;;;62.42;20.80;;;1.30;99.90;;;;;;5125114;28;20116;-71
2022/01/11 02:10:05;;;;;;;62.38;21.52;;;1.50;99.90;;;;;;5159832;27;20047;-71
2022/01/11 02:12:30;;;;;;;42.03;21.95;;;1.60;99.90;;;;;;5126464;28;20043;-71
2022/01/11 02:14:56;;;;;;;70.75;22.10;;;1.50;99.90;;;;;;5126121;28;20059;-71
2022/01/11 02:17:25;;;;;;;60.92;21.33;;;1.50;99.90;;;;;;5126732;28;20124;-71
2022/01/11 02:19:52;;;;;;;84.90;23.10;;;1.60;99.90;;;;;;5127041;28;20064;-71
2022/01/11 02:22:18;;;;;;;67.22;22.55;;;1.60;99.90;;;;;;5126352;28;20044;-71
2022/01/11 02:24:44;;;;;;;69.47;21.58;;;1.60;99.90;;;;;;5127404;28;20592;-71
2022/01/11 02:27:09;;;;;;;77.50;23.13;;;1.60;99.90;;;;;;5160429;27;20083;-71
2022/01/11 02:29:36;;;;;;;59.25;22.25;;;1.70;99.90;;;;;;5123381;28;20044;-71
2022/01/11 02:32:02;;;;;;;51.22;22.45;;;1.70;99.90;;;;;;5120408;28;20078;-71
2022/01/11 02:34:27;;;;;;;83.53;24.25;;;1.60;99.90;;;;;;5115766;28;20048;-71
2022/01/11 02:36:53;;;;;;;70.75;25.25;;;1.50;99.90;;;;;;5125030;28;20043;-71
2022/01/11 02:39:19;;;;;;;67.10;23.00;;;1.40;99.90;;;;;;5124005;28;20043;-71
2022/01/11 02:41:50;;;;;;;53.88;23.13;;;1.50;99.90;;;;;;5121334;27;20048;-71
2022/01/11 02:44:16;;;;;;;47.88;19.67;;;1.50;99.90;;;;;;5122070;28;20050;-71
2022/01/11 02:46:42;;;;;;;73.88;25.13;;;1.60;99.90;;;;;;5126197;28;20047;-71
2022/01/11 02:49:08;;;;;;;62.22;22.83;;;1.50;99.90;;;;;;5124716;28;20104;-71
2022/01/11 02:51:33;;;;;;;73.70;25.00;;;1.50;99.90;;;;;;5125347;28;20255;-71
2022/01/11 02:54:00;;;;;;;42.40;23.13;;;1.60;99.90;;;;;;5125787;28;20160;-71
2022/01/11 02:56:26;;;;;;;101.38;24.42;;;1.60;99.90;;;;;;5125664;28;20036;-71
2022/01/11 02:58:52;;;;;;;84.90;24.58;;;1.50;99.90;;;;;;5125534;28;20039;-71
2022/01/11 03:01:18;;;;;;;67.30;24.88;;;1.50;99.90;;;;;;5126610;28;20051;-71
2022/01/11 03:03:44;;;;;;;51.85;25.13;;;1.50;99.90;;;;;;5126833;28;20047;-71
2022/01/11 03:06:10;;;;;;;107.05;26.67;;;1.40;99.90;;;;;;5125793;28;20048;-71
2022/01/11 03:08:42;;;;;;;69.40;26.27;;;1.50;99.90;;;;;;5119763;28;20051;-71
2022/01/11 03:11:18;;;;;;;64.55;26.20;;;1.50;99.90;;;;;;5114705;28;20122;-71
2022/01/11 03:13:44;;;;;;;62.38;25.67;;;1.40;99.90;;;;;;5125575;28;20516;-71
2022/01/11 03:16:12;;;;;;;61.10;26.10;;;1.40;99.90;;;;;;5114931;28;20047;-71
2022/01/11 03:18:38;;;;;;;97.18;26.30;;;1.20;99.90;;;;;;5120825;28;20031;-71
2022/01/11 03:21:04;;;;;;;59.47;24.52;;;1.20;99.90;;;;;;5117672;27;20624;-71
2022/01/11 03:23:31;;;;;;;83.20;27.08;;;1.20;99.90;;;;;;5123415;28;20048;-71
2022/01/11 03:25:57;;;;;;;69.53;25.20;;;1.20;99.90;;;;;;5125098;28;20047;-71
2022/01/11 03:28:23;;;;;;;68.32;24.05;;;1.20;99.90;;;;;;5158774;27;20050;-71
2022/01/11 03:30:51;;;;;;;99.47;25.00;;;1.30;99.90;;;;;;5158592;27;20043;-71
2022/01/11 03:33:17;;;;;;;72.97;23.67;;;1.10;99.90;;;;;;5124793;28;20048;-71
2022/01/11 03:35:43;;;;;;;75.72;24.52;;;1.20;99.90;;;;;;5119007;28;20062;-71
2022/01/11 03:38:11;;;;;;;93.65;24.35;;;1.30;99.90;;;;;;5124401;28;20044;-71
2022/01/11 03:40:38;;;;;;;80.53;23.98;;;1.40;99.90;;;;;;5114152;28;20077;-71
2022/01/11 03:43:04;;;;;;;72.47;22.23;;;1.30;99.90;;;;;;5124883;28;20047;-71
2022/01/11 03:45:30;;;;;;;64.40;22.77;;;1.30;99.90;;;;;;5116845;28;20039;-71
2022/01/11 03:47:58;;;;;;;59.67;22.10;;;1.30;99.90;;;;;;5118136;28;20100;-71
2022/01/11 03:50:24;;;;;;;62.10;23.80;;;1.20;99.90;;;;;;5120586;28;20044;-71
2022/01/11 03:53:08;;;;;;;83.35;22.30;;;1.10;99.90;;;;;;5157806;27;20051;-71
2022/01/11 03:58:13;;;;;;;72.18;23.40;;;1.30;99.90;;;;;;5116258;28;20043;-71
2022/01/11 04:00:40;;;;;;;71.75;21.90;;;1.30;99.90;;;;;;5149265;27;20412;-71
2022/01/11 04:03:06;;;;;;;70.38;23.15;;;1.30;99.90;;;;;;5123086;28;20071;-71
2022/01/11 04:05:32;;;;;;;74.78;23.90;;;1.10;99.90;;;;;;5124171;28;20058;-71
2022/01/11 04:07:58;;;;;;;49.03;21.55;;;1.00;99.90;;;;;;5116821;28;20040;-71
2022/01/11 04:10:24;;;;;;;76.50;23.60;;;0.90;99.90;;;;;;5117537;28;20082;-71
2022/01/11 04:12:51;;;;;;;60.10;20.13;;;1.00;99.90;;;;;;5124690;28;20047;-71
2022/01/11 04:15:17;;;;;;;72.05;22.75;;;1.30;99.90;;;;;;5122366;28;20048;-71
2022/01/11 04:17:43;;;;;;;43.47;21.42;;;1.30;99.90;;;;;;5155239;27;20106;-71
2022/01/11 04:20:09;;;;;;;49.10;21.27;;;1.30;99.90;;;;;;5124531;28;20044;-71
2022/01/11 04:22:35;;;;;;;46.08;22.08;;;1.30;99.90;;;;;;5124668;28;20043;-71
2022/01/11 04:25:01;;;;;;;39.58;22.90;;;1.00;99.90;;;;;;5118377;28;20047;-71
2022/01/11 04:27:26;;;;;;;69.32;24.33;;;1.00;99.90;;;;;;5123542;28;20136;-71
2022/01/11 04:29:52;;;;;;;60.72;24.40;;;0.90;99.90;;;;;;5124417;28;20055;-71
2022/01/11 04:32:18;;;;;;;40.83;23.25;;;0.90;99.90;;;;;;5124280;28;20051;-71
2022/01/11 04:34:43;;;;;;;44.15;22.85;;;0.90;99.90;;;;;;5123939;28;20103;-71
2022/01/11 04:37:09;;;;;;;50.28;24.45;;;0.80;99.90;;;;;;5122405;28;20385;-71
2022/01/11 04:39:35;;;;;;;47.05;23.90;;;0.90;99.90;;;;;;5116260;28;20043;-71
2022/01/11 04:42:00;;;;;;;45.25;23.20;;;0.90;99.90;;;;;;5120956;28;20073;-71
2022/01/11 04:44:26;;;;;;;50.72;25.77;;;0.90;99.90;;;;;;5122613;28;20107;-71
2022/01/11 04:46:52;;;;;;;51.60;25.70;;;0.90;99.90;;;;;;5123679;28;20043;-70
2022/01/11 04:49:18;;;;;;;51.10;24.92;;;0.80;99.90;;;;;;5120141;28;20040;-71
2022/01/11 04:51:43;;;;;;;49.63;25.55;;;0.90;99.90;;;;;;5121586;28;20071;-71
2022/01/11 04:54:09;;;;;;;53.42;25.65;;;0.90;99.90;;;;;;5123966;28;20044;-71
2022/01/11 04:56:36;;;;;;;50.72;24.20;;;0.90;99.90;;;;;;5121862;28;20039;-71
2022/01/11 04:59:01;;;;;;;51.10;24.55;;;1.20;99.90;;;;;;5124389;28;20050;-71
2022/01/11 05:01:30;;;;;;;56.35;24.45;;;1.10;99.90;;;;;;5123552;28;20032;-71
2022/01/11 05:03:56;;;;;;;64.80;26.23;;;1.10;99.90;;;;;;5154647;27;20055;-71
2022/01/11 05:06:21;;;;;;;65.18;25.55;;;1.10;99.90;;;;;;5123210;28;20052;-71
2022/01/11 05:08:48;;;;;;;49.85;26.25;;;1.20;99.90;;;;;;5157662;27;20047;-71
2022/01/11 05:11:14;;;;;;;58.33;26.05;;;1.20;99.90;;;;;;5121506;28;20043;-71
2022/01/11 05:13:40;;;;;;;56.92;26.85;;;1.10;99.90;;;;;;5124706;28;20048;-71
2022/01/11 05:16:08;;;;;;;59.88;28.02;;;1.10;99.90;;;;;;5124151;28;20042;-71
2022/01/11 05:18:36;;;;;;;71.43;28.35;;;1.20;99.90;;;;;;5120557;28;20089;-71
2022/01/11 05:21:02;;;;;;;90.68;28.20;;;1.30;99.90;;;;;;5120492;28;20050;-71
2022/01/11 05:23:28;;;;;;;67.43;28.08;;;1.20;99.90;;;;;;5080487;28;20052;-71
2022/01/11 05:25:54;;;;;;;75.80;27.70;;;1.10;99.90;;;;;;5118941;28;20494;-71
2022/01/11 05:28:19;;;;;;;81.57;29.13;;;1.20;99.90;;;;;;5123789;28;20096;-70
2022/01/11 05:30:45;;;;;;;70.82;28.67;;;1.20;99.90;;;;;;5123027;28;20122;-70
2022/01/11 05:33:11;;;;;;;64.20;28.80;;;1.20;99.90;;;;;;5110498;28;20083;-72
2022/01/11 05:35:37;;;;;;;76.43;29.33;;;1.20;99.90;;;;;;5130709;27;20075;-72
2022/01/11 05:38:02;;;;;;;66.43;29.02;;;1.20;99.90;;;;;;5102179;28;20039;-71
2022/01/11 05:40:28;;;;;;;68.43;29.23;;;1.40;99.90;;;;;;5154798;27;20043;-73
2022/01/11 05:42:54;;;;;;;68.07;28.13;;;1.50;99.90;;;;;;5115148;27;20212;-75
2022/01/11 05:45:20;;;;;;;71.82;29.77;;;1.30;99.90;;;;;;5129825;27;20047;-75
2022/01/11 05:47:47;;;;;;;63.33;29.38;;;1.30;99.90;;;;;;5116540;27;20144;-74
2022/01/11 05:50:14;;;;;;;66.43;30.30;;;1.40;99.90;;;;;;5133543;27;20067;-75
2022/01/11 05:52:42;;;;;;;75.18;32.03;;;1.40;99.90;;;;;;5116010;27;20101;-72
2022/01/11 05:55:10;;;;;;;67.97;28.63;;;1.40;99.90;;;;;;5134634;27;20036;-72
2022/01/11 05:57:36;;;;;;;71.05;31.15;;;1.40;99.90;;;;;;5115884;27;20042;-72
2022/01/11 06:00:07;;;;;;;67.70;31.92;;;1.40;99.90;;;;;;5130918;27;20043;-71
2022/01/11 06:02:33;;;;;;;72.25;31.98;;;1.50;99.90;;;;;;5111469;27;20051;-73
2022/01/11 06:04:59;;;;;;;77.15;34.03;;;1.50;99.90;;;;;;5136777;27;20247;-67
2022/01/11 06:07:24;;;;;;;71.97;33.38;;;1.60;99.90;;;;;;5110326;27;20107;-71
2022/01/11 06:09:50;;;;;;;73.03;32.42;;;1.40;99.90;;;;;;5152071;27;20032;-68
2022/01/11 06:12:16;;;;;;;72.57;33.17;;;1.30;99.90;;;;;;5129850;27;20104;-67
2022/01/11 06:14:41;;;;;;;66.47;30.42;;;1.20;99.90;;;;;;5128470;27;20043;-70
2022/01/11 06:17:07;;;;;;;74.85;32.85;;;1.20;99.90;;;;;;5118592;28;20099;-70
2022/01/11 06:19:34;;;;;;;69.07;30.42;;;1.20;99.90;;;;;;5141827;27;20047;-71
2022/01/11 06:22:00;;;;;;;77.38;31.73;;;1.30;99.90;;;;;;5119481;28;20043;-70
2022/01/11 06:24:25;;;;;;;70.97;32.03;;;1.40;99.90;;;;;;5102448;27;20082;-70
2022/01/11 06:26:51;;;;;;;65.88;30.52;;;1.40;99.90;;;;;;5118010;28;20040;-70
2022/01/11 06:29:17;;;;;;;71.00;31.92;;;1.30;99.90;;;;;;5137288;27;20050;-71
2022/01/11 06:31:43;;;;;;;70.78;32.38;;;1.40;99.90;;;;;;5101745;28;20419;-71
2022/01/11 06:34:10;;;;;;;72.65;31.23;;;1.40;99.90;;;;;;5122056;27;20047;-70
2022/01/11 06:36:36;;;;;;;76.43;34.17;;;1.20;99.90;;;;;;5105052;28;20096;-70
2022/01/11 06:39:02;;;;;;;72.40;31.27;;;1.20;99.90;;;;;;5107182;27;20126;-69
2022/01/11 06:41:28;;;;;;;63.22;31.25;;;1.10;99.90;;;;;;5118016;27;20048;-70
2022/01/11 06:43:54;;;;;;;63.53;32.38;;;1.10;99.90;;;;;;5117763;27;20058;-70
2022/01/11 06:46:22;;;;;;;76.13;32.75;;;1.10;99.90;;;;;;5121736;27;20053;-69
2022/01/11 06:48:48;;;;;;;68.30;30.80;;;1.00;99.90;;;;;;5143143;27;20088;-70
2022/01/11 06:51:14;;;;;;;66.22;30.17;;;1.30;99.90;;;;;;5123828;27;20110;-69
2022/01/11 06:53:39;;;;;;;64.18;31.17;;;1.30;99.90;;;;;;5126217;27;20051;-70
2022/01/11 06:56:05;;;;;;;68.95;32.25;;;1.30;99.90;;;;;;5125546;27;20028;-70
2022/01/11 06:58:31;;;;;;;73.28;32.65;;;1.30;99.90;;;;;;5124904;27;20130;-70
2022/01/11 07:00:57;;;;;;;62.55;30.27;;;1.30;99.90;;;;;;5126750;27;20039;-70
2022/01/11 07:03:22;;;;;;;68.85;31.15;;;1.40;99.90;;;;;;5121934;27;20074;-70
2022/01/11 07:05:48;;;;;;;70.53;33.35;;;1.40;99.90;;;;;;5127987;27;20103;-69
2022/01/11 07:08:14;;;;;;;67.03;28.75;;;1.40;99.90;;;;;;5113856;27;20087;-70
2022/01/11 07:10:39;;;;;;;72.10;32.95;;;1.50;99.90;;;;;;5119233;27;20077;-70
2022/01/11 07:13:05;;;;;;;69.13;31.50;;;1.40;99.90;;;;;;5104727;27;20080;-70
2022/01/11 07:15:31;;;;;;;76.10;32.35;;;1.40;99.90;;;;;;5128104;27;20810;-70
2022/01/11 07:17:57;;;;;;;70.05;31.45;;;1.40;99.90;;;;;;5108818;27;20043;-70
2022/01/11 07:20:23;;;;;;;72.78;33.63;;;1.40;99.90;;;;;;5124149;27;20543;-70
2022/01/11 07:22:49;;;;;;;69.97;34.13;;;1.30;99.90;;;;;;5135342;27;20126;-71
2022/01/11 07:25:15;;;;;;;72.95;33.55;;;1.20;99.90;;;;;;5131975;27;20112;-70
2022/01/11 07:27:41;;;;;;;77.60;33.15;;;1.20;99.90;;;;;;5115159;28;20048;-66
2022/01/11 07:30:08;;;;;;;78.75;33.60;;;1.20;99.90;;;;;;5087850;28;20085;-66
2022/01/11 07:32:35;;;;;;;72.00;29.13;;;1.20;99.90;;;;;;5104714;28;20713;-70
2022/01/11 07:35:04;;;;;;;71.95;33.33;;;1.30;99.90;;;;;;5124474;27;20119;-64
2022/01/11 07:37:30;;;;;;;73.40;30.63;;;1.30;99.90;;;;;;5145407;27;20079;-65
2022/01/11 07:39:56;;;;;;;67.65;31.45;;;1.40;99.90;;;;;;5114711;27;20581;-65
2022/01/11 07:42:22;;;;;;;72.20;33.50;;;1.30;99.90;;;;;;5114829;28;20055;-65
2022/01/11 07:44:51;;;;;;;71.82;31.77;;;1.30;99.90;;;;;;5106661;27;20494;-65
2022/01/11 07:47:18;;;;;;;69.10;31.27;;;1.30;99.90;;;;;;5112183;28;20043;-66
2022/01/11 07:49:44;;;;;;;55.45;28.63;;;1.20;99.90;;;;;;5119070;27;20043;-65
2022/01/11 07:52:10;;;;;;;61.70;28.55;;;1.30;99.90;;;;;;5119732;27;20050;-65
2022/01/11 07:54:35;;;;;;;63.15;29.88;;;1.30;99.90;;;;;;5073350;27;20057;-65
2022/01/11 07:57:01;;;;;;;60.40;28.38;;;1.40;99.90;;;;;;5112795;27;20079;-65
2022/01/11 07:59:27;;;;;;;56.78;27.17;;;1.30;99.90;;;;;;5130083;27;20309;-65
2022/01/11 08:01:53;;;;;;;50.58;24.42;;;1.30;99.90;;;;;;5118621;28;20130;-65
2022/01/11 08:04:19;;;;;;;50.58;25.73;;;1.30;99.90;;;;;;5118856;27;20559;-65
2022/01/11 08:06:44;;;;;;;52.65;25.83;;;1.40;99.90;;;;;;5116893;28;20043;-65
2022/01/11 08:09:10;;;;;;;54.60;26.88;;;1.40;99.90;;;;;;5118849;27;20061;-65
2022/01/11 08:11:36;;;;;;;46.40;24.70;;;1.50;99.90;;;;;;5122585;27;20312;-65
2022/01/11 08:14:02;;;;;;;53.47;25.98;;;1.40;99.90;;;;;;5119378;27;20064;-65
2022/01/11 08:16:28;;;;;;;48.38;22.90;;;1.40;99.90;;;;;;5098233;28;20068;-65
2022/01/11 08:18:53;;;;;;;45.00;25.58;;;1.40;99.90;;;;;;5120291;27;20046;-65
2022/01/11 08:21:19;;;;;;;47.72;24.40;;;1.40;99.90;;;;;;5106474;28;20051;-65
2022/01/11 08:23:45;;;;;;;47.83;25.92;;;1.30;99.90;;;;;;5109413;27;20110;-65
2022/01/11 08:26:10;;;;;;;44.97;24.40;;;1.30;99.90;;;;;;5116457;27;20031;-65
2022/01/11 08:28:36;;;;;;;45.65;24.25;;;1.30;99.90;;;;;;5118197;27;20066;-65
2022/01/11 08:31:02;;;;;;;42.58;23.83;;;1.50;99.90;;;;;;5127578;27;20055;-65
2022/01/11 08:33:28;;;;;;;41.40;21.75;;;1.60;99.90;;;;;;5111253;27;20047;-65
2022/01/11 08:35:54;;;;;;;41.05;21.98;;;1.70;99.90;;;;;;5127222;28;20152;-65
2022/01/11 08:38:19;;;;;;;41.50;23.05;;;1.80;99.90;;;;;;5109630;27;20147;-65
2022/01/11 08:40:45;;;;;;;44.67;23.25;;;1.90;99.90;;;;;;5101877;28;20048;-65
2022/01/11 08:43:13;;;;;;;40.13;22.15;;;1.80;99.90;;;;;;5108467;27;20525;-65
2022/01/11 08:45:39;;;;;;;43.85;22.55;;;1.70;99.90;;;;;;5132020;28;20051;-64
2022/01/11 08:48:05;;;;;;;45.15;23.88;;;1.60;99.90;;;;;;5106320;27;20036;-65
2022/01/11 08:50:31;;;;;;;43.00;23.88;;;1.50;99.90;;;;;;5143915;27;20051;-65
2022/01/11 08:52:57;;;;;;;42.33;22.48;;;1.30;99.90;;;;;;5114403;28;20242;-66
2022/01/11 08:55:24;;;;;;;40.28;23.20;;;1.20;99.90;;;;;;5121334;27;20048;-65
2022/01/11 08:57:50;;;;;;;35.67;17.17;;;1.40;99.90;;;;;;5108759;28;20214;-65
2022/01/11 09:00:18;;;;;;;34.42;17.90;;;1.60;99.90;;;;;;5123371;27;20156;-65
2022/01/11 09:02:48;;;;;;;43.35;22.63;;;1.80;99.90;;;;;;5151004;27;20051;-66
2022/01/11 09:05:15;;;;;;;40.42;23.35;;;1.60;99.90;;;;;;5132921;27;20066;-65
2022/01/11 09:07:41;;;;;;;38.75;20.95;;;1.70;99.90;;;;;;5115896;28;20443;-65
2022/01/11 09:10:08;;;;;;;41.25;20.30;;;1.90;99.90;;;;;;5138345;27;20047;-66
2022/01/11 09:12:34;;;;;;;34.50;19.85;;;1.80;99.90;;;;;;5153063;27;20569;-65
2022/01/11 09:15:03;;;;;;;36.58;20.80;;;1.70;99.90;;;;;;5132843;27;20055;-65
2022/01/11 09:17:28;;;;;;;37.90;20.35;;;1.80;99.90;;;;;;5113437;28;20040;-66
2022/01/11 09:19:54;;;;;;;40.58;20.65;;;1.80;99.90;;;;;;5127411;27;20236;-65
2022/01/11 09:22:20;;;;;;;36.13;18.70;;;2.00;99.90;;;;;;5122115;27;20039;-66
2022/01/11 09:24:46;;;;;;;39.40;21.45;;;2.10;99.90;;;;;;5115126;27;20061;-66
2022/01/11 09:27:14;;;;;;;38.08;19.70;;;2.00;99.90;;;;;;5124765;27;20044;-65
2022/01/11 09:29:41;;;;;;;34.65;18.55;;;2.10;99.90;;;;;;5135834;27;20067;-65
2022/01/11 09:32:08;;;;;;;31.15;17.73;;;2.30;99.90;;;;;;5112887;28;20062;-65
2022/01/11 09:34:37;;;;;;;34.55;19.10;;;2.40;99.90;;;;;;5145328;27;20243;-65
2022/01/11 09:37:03;;;;;;;34.17;20.20;;;2.30;99.90;;;;;;5120112;28;20071;-65
2022/01/11 09:39:29;;;;;;;35.33;19.38;;;2.20;99.90;;;;;;5123745;27;20554;-65
2022/01/11 09:41:58;;;;;;;38.40;19.35;;;2.20;99.90;;;;;;5123658;27;20054;-65
2022/01/11 09:44:24;;;;;;;31.77;19.05;;;2.20;99.90;;;;;;5144174;27;20059;-65
2022/01/11 09:46:50;;;;;;;39.03;19.98;;;2.10;99.90;;;;;;5120165;28;20081;-65
2022/01/11 09:49:16;;;;;;;34.10;18.55;;;1.70;99.90;;;;;;5127090;27;20039;-65
2022/01/11 09:51:41;;;;;;;38.90;18.52;;;1.80;99.90;;;;;;5125673;27;20043;-65
2022/01/11 09:54:08;;;;;;;30.42;16.65;;;1.70;99.90;;;;;;5123516;27;20047;-66
2022/01/11 09:56:36;;;;;;;31.55;18.92;;;1.80;99.90;;;;;;5135250;27;20069;-65
2022/01/11 09:59:02;;;;;;;31.95;18.95;;;1.80;99.90;;;;;;5117861;27;20485;-66
2022/01/11 10:01:28;;;;;;;33.33;17.70;;;1.80;99.90;;;;;;5138860;27;20036;-65
2022/01/11 10:04:06;;;;;;;34.55;20.40;;;1.70;99.90;;;;;;5117579;27;20134;-65
2022/01/11 10:06:35;;;;;;;34.75;18.00;;;1.80;99.90;;;;;;5128510;27;20044;-65
2022/01/11 10:09:22;;;;;;;29.15;16.90;;;1.80;99.90;;;;;;5116590;27;20055;-65
2022/01/11 10:11:53;;;;;;;31.85;17.58;;;1.90;99.90;;;;;;5137196;27;20130;-65
2022/01/11 10:14:32;;;;;;;31.13;18.83;;;1.90;99.90;;;;;;5103372;27;20051;-65
2022/01/11 10:17:19;;;;;;;28.90;17.00;;;2.00;99.90;;;;;;5123365;27;20043;-65
2022/01/11 10:20:00;;;;;;;31.73;18.05;;;1.90;99.90;;;;;;5113067;27;20424;-65
2022/01/11 10:22:26;;;;;;;29.00;17.67;;;2.00;99.90;;;;;;5107858;27;20039;-66
2022/01/11 10:24:54;;;;;;;32.38;16.85;;;2.30;99.90;;;;;;5133236;27;20062;-65
2022/01/11 10:27:30;;;;;;;29.42;16.67;;;2.30;99.90;;;;;;5120094;27;20043;-65
2022/01/11 10:29:57;;;;;;;26.55;15.50;;;2.50;99.90;;;;;;5135771;27;20035;-65
2022/01/11 10:32:37;;;;;;;24.98;14.00;;;2.60;99.90;;;;;;5120233;27;20535;-65
2022/01/11 10:35:08;;;;;;;26.73;15.65;;;2.70;99.90;;;;;;5136470;27;20046;-65
2022/01/11 10:37:37;;;;;;;26.83;16.25;;;2.70;99.90;;;;;;5117701;27;20047;-65
2022/01/11 10:40:35;;;;;;;26.42;15.80;;;2.70;99.90;;;;;;5132666;27;20055;-65
2022/01/11 10:43:10;;;;;;;26.15;16.77;;;2.60;99.90;;;;;;5102967;28;20147;-65
2022/01/11 10:45:41;;;;;;;23.73;14.95;;;2.60;99.90;;;;;;5139752;27;20050;-65
2022/01/11 10:48:22;;;;;;;26.50;15.40;;;2.40;99.90;;;;;;5116944;28;20039;-65
2022/01/11 10:50:51;;;;;;;27.77;16.15;;;2.50;99.90;;;;;;5084968;28;20475;-65
2022/01/11 10:53:38;;;;;;;28.88;16.40;;;2.30;99.90;;;;;;5117619;28;20105;-65
2022/01/11 10:56:05;;;;;;;25.75;15.45;;;2.40;99.90;;;;;;5119268;27;20048;-65
2022/01/11 10:58:35;;;;;;;26.42;14.82;;;2.50;99.90;;;;;;5104510;27;20049;-66
2022/01/11 11:01:03;;;;;;;25.42;14.63;;;2.50;99.90;;;;;;5148806;27;20039;-65
2022/01/11 11:03:31;;;;;;;26.83;14.75;;;2.70;99.90;;;;;;5107673;27;20314;-66
2022/01/11 11:06:00;;;;;;;24.90;15.40;;;2.80;99.90;;;;;;5127604;27;20110;-65
2022/01/11 11:08:36;;;;;;;22.73;14.02;;;2.90;99.90;;;;;;5119130;28;20078;-65
2022/01/11 11:11:15;;;;;;;25.00;14.98;;;3.00;99.90;;;;;;5105195;27;20047;-65
2022/01/11 11:13:44;;;;;;;24.35;15.00;;;2.80;99.90;;;;;;5097408;27;20364;-65
2022/01/11 11:16:26;;;;;;;27.02;14.15;;;2.90;99.90;;;;;;5129764;27;20042;-65
2022/01/11 11:18:54;;;;;;;23.80;14.50;;;3.00;99.90;;;;;;5098545;27;20082;-65
2022/01/11 11:21:32;;;;;;;27.73;14.73;;;3.00;99.90;;;;;;5143490;27;20092;-65
2022/01/11 11:24:04;;;;;;;25.42;15.13;;;2.90;99.90;;;;;;5106943;27;20074;-65
2022/01/11 11:26:32;;;;;;;23.20;13.35;;;3.10;99.90;;;;;;5117681;27;20072;-65
2022/01/11 11:28:58;;;;;;;21.90;13.00;;;3.40;99.90;;;;;;5110917;27;20062;-65
2022/01/11 11:31:26;;;;;;;24.88;14.60;;;3.20;99.90;;;;;;5128867;27;20124;-65
2022/01/11 11:33:52;;;;;;;22.48;13.85;;;3.50;99.90;;;;;;5137462;27;20536;-66
2022/01/11 11:36:19;;;;;;;22.58;12.40;;;3.80;99.90;;;;;;5127128;27;20090;-65
2022/01/11 11:38:54;;;;;;;22.85;13.77;;;3.90;99.90;;;;;;5131881;27;20124;-65
2022/01/11 11:41:21;;;;;;;23.67;13.75;;;4.00;99.90;;;;;;5143644;27;20100;-65
2022/01/11 11:44:12;;;;;;;23.30;14.27;;;3.90;99.90;;;;;;5107681;27;20054;-66
2022/01/11 11:46:42;;;;;;;22.25;13.30;;;3.90;99.90;;;;;;5138445;27;20159;-65
2022/01/11 11:49:07;;;;;;;21.25;12.68;;;4.10;99.90;;;;;;5137909;27;20463;-65
2022/01/11 11:51:39;;;;;;;22.40;12.90;;;4.10;99.90;;;;;;5101838;28;20036;-65
2022/01/11 11:54:15;;;;;;;22.15;13.40;;;4.00;99.90;;;;;;5109347;27;20266;-65
2022/01/11 11:56:58;;;;;;;22.30;13.60;;;3.90;99.90;;;;;;5126623;27;20050;-65
2022/01/11 11:59:25;;;;;;;24.40;14.55;;;3.90;99.90;;;;;;5114278;27;20050;-66
2022/01/11 12:01:50;;;;;;;27.08;13.57;;;4.10;99.90;;;;;;5136728;27;20050;-65
2022/01/11 12:04:31;;;;;;;23.55;14.60;;;4.00;99.90;;;;;;5117493;27;20553;-64
2022/01/11 12:06:57;;;;;;;;;;;4.10;99.90;;;;;;5125575;27;20051;-64
2022/01/11 12:09:29;;;;;;;21.42;13.10;;;4.10;99.90;;;;;;5117337;27;19923;-64
2022/01/11 12:11:57;;;;;;;24.20;13.90;;;4.10;99.90;;;;;;5135778;27;20051;-65
2022/01/11 12:14:32;;;;;;;27.27;14.90;;;3.90;99.90;;;;;;5113208;27;20410;-65
2022/01/11 12:17:16;;;;;;;23.00;13.25;;;4.00;99.90;;;;;;5123402;27;20051;-65
2022/01/11 12:19:50;;;;;;;23.98;12.90;;;4.00;99.90;;;;;;5142865;27;20047;-65
2022/01/11 12:22:22;;;;;;;22.55;13.68;;;4.00;99.90;;;;;;5114077;27;20048;-65
2022/01/11 12:24:49;;;;;;;22.63;11.82;;;4.20;99.90;;;;;;5108924;27;20120;-65
2022/01/11 12:27:19;;;;;;;24.05;13.73;;;4.10;99.90;;;;;;5133047;27;20077;-65
2022/01/11 12:30:17;;;;;;;23.42;12.05;;;4.20;99.90;;;;;;5115147;27;20042;-65
2022/01/11 12:33:10;;;;;;;25.58;13.05;;;4.50;99.90;;;;;;5105985;28;20300;-65
2022/01/11 12:35:59;;;;;;;23.40;13.52;;;4.70;99.90;;;;;;5135560;27;20161;-65
2022/01/11 12:38:27;;;;;;;23.08;13.20;;;4.50;99.90;;;;;;5105692;28;20039;-65
2022/01/11 12:40:53;;;;;;;21.13;12.05;;;4.70;99.90;;;;;;5122641;27;20047;-65
2022/01/11 12:43:40;;;;;;;20.65;12.30;;;4.80;99.90;;;;;;5116827;28;20506;-65
2022/01/11 12:46:09;;;;;;;24.55;13.63;;;4.70;99.90;;;;;;5141567;27;20049;-65
2022/01/11 12:48:45;;;;;;;25.38;13.77;;;4.60;99.90;;;;;;5119365;28;20051;-65
2022/01/11 12:51:40;;;;;;;22.88;12.73;;;4.50;99.90;;;;;;5143000;27;20225;-65